sensor_id;sensor_type;location;lat;lon;timestamp;temperature;humidity
666;DHT22;315;48.738;9.126;2023-05-20T00:02:03;11.90;99.90
666;DHT22;315;48.738;9.126;2023-05-20T00:04:29;12.00;99.90
666;DHT22;315;48.738;9.126;2023-05-20T00:06:54;12.00;99.90
666;DHT22;315;48.738;9.126;2023-05-20T00:09:20;12.00;99.90
666;DHT22;315;48.738;9.126;2023-05-20T00:11:46;12.00;99.90
666;DHT22;315;48.738;9.126;2023-05-20T00:14:11;12.00;99.90
666;DHT22;315;48.738;9.126;2023-05-20T00:16:37;12.10;99.90
666;DHT22;315;48.738;9.126;2023-05-20T00:19:02;12.00;99.90
666;DHT22;315;48.738;9.126;2023-05-20T00:21:28;12.00;99.90
666;DHT22;315;48.738;9.126;2023-05-20T00:23:54;12.00;99.90
666;DHT22;315;48.738;9.126;2023-05-20T00:26:20;12.00;99.90
666;DHT22;315;48.738;9.126;2023-05-20T00:28:46;12.10;99.90
666;DHT22;315;48.738;9.126;2023-05-20T00:31:12;12.10;99.90
666;DHT22;315;48.738;9.126;2023-05-20T00:33:38;12.30;99.90
666;DHT22;315;48.738;9.126;2023-05-20T00:36:04;12.30;99.90
666;DHT22;315;48.738;9.126;2023-05-20T00:38:29;12.40;99.90
666;DHT22;315;48.738;9.126;2023-05-20T00:40:55;12.40;99.90
666;DHT22;315;48.738;9.126;2023-05-20T00:43:20;12.50;99.90
666;DHT22;315;48.738;9.126;2023-05-20T00:45:47;12.40;99.90
666;DHT22;315;48.738;9.126;2023-05-20T00:48:13;12.40;99.90
666;DHT22;315;48.738;9.126;2023-05-20T00:50:38;12.40;99.90
666;DHT22;315;48.738;9.126;2023-05-20T00:53:05;12.40;99.90
666;DHT22;315;48.738;9.126;2023-05-20T00:55:31;12.40;99.90
666;DHT22;315;48.738;9.126;2023-05-20T00:57:57;12.40;99.90
666;DHT22;315;48.738;9.126;2023-05-20T01:00:22;12.40;99.90
666;DHT22;315;48.738;9.126;2023-05-20T01:02:48;12.40;99.90
666;DHT22;315;48.738;9.126;2023-05-20T01:05:14;12.40;99.90
666;DHT22;315;48.738;9.126;2023-05-20T01:07:39;12.40;99.90
666;DHT22;315;48.738;9.126;2023-05-20T01:10:06;12.40;99.90
666;DHT22;315;48.738;9.126;2023-05-20T01:12:39;12.40;99.90
666;DHT22;315;48.738;9.126;2023-05-20T01:15:11;12.40;99.90
666;DHT22;315;48.738;9.126;2023-05-20T01:17:40;12.50;99.90
666;DHT22;315;48.738;9.126;2023-05-20T01:20:09;12.40;99.90
666;DHT22;315;48.738;9.126;2023-05-20T01:22:46;12.50;99.90
666;DHT22;315;48.738;9.126;2023-05-20T01:25:12;12.50;99.90
666;DHT22;315;48.738;9.126;2023-05-20T01:27:37;12.50;99.90
666;DHT22;315;48.738;9.126;2023-05-20T01:30:03;12.50;99.90
666;DHT22;315;48.738;9.126;2023-05-20T01:32:37;12.50;99.90
666;DHT22;315;48.738;9.126;2023-05-20T01:35:03;12.60;99.90
666;DHT22;315;48.738;9.126;2023-05-20T01:37:30;12.60;99.90
666;DHT22;315;48.738;9.126;2023-05-20T01:39:57;12.50;99.90
666;DHT22;315;48.738;9.126;2023-05-20T01:42:25;12.50;99.90
666;DHT22;315;48.738;9.126;2023-05-20T01:44:52;12.50;99.90
666;DHT22;315;48.738;9.126;2023-05-20T01:47:18;12.50;99.90
666;DHT22;315;48.738;9.126;2023-05-20T01:49:43;12.50;99.90
666;DHT22;315;48.738;9.126;2023-05-20T01:52:10;12.50;99.90
666;DHT22;315;48.738;9.126;2023-05-20T01:54:36;12.60;99.90
666;DHT22;315;48.738;9.126;2023-05-20T01:57:02;12.60;99.90
666;DHT22;315;48.738;9.126;2023-05-20T01:59:27;12.60;99.90
666;DHT22;315;48.738;9.126;2023-05-20T02:01:53;12.60;99.90
666;DHT22;315;48.738;9.126;2023-05-20T02:04:18;12.50;99.90
666;DHT22;315;48.738;9.126;2023-05-20T02:06:45;12.50;99.90
666;DHT22;315;48.738;9.126;2023-05-20T02:09:11;12.60;99.90
666;DHT22;315;48.738;9.126;2023-05-20T02:11:37;12.50;99.90
666;DHT22;315;48.738;9.126;2023-05-20T02:14:02;12.50;99.90
666;DHT22;315;48.738;9.126;2023-05-20T02:16:28;12.50;99.90
666;DHT22;315;48.738;9.126;2023-05-20T02:18:53;12.50;99.90
666;DHT22;315;48.738;9.126;2023-05-20T02:21:19;12.40;99.90
666;DHT22;315;48.738;9.126;2023-05-20T02:23:45;12.40;99.90
666;DHT22;315;48.738;9.126;2023-05-20T02:26:11;12.50;99.90
666;DHT22;315;48.738;9.126;2023-05-20T02:28:36;12.40;99.90
666;DHT22;315;48.738;9.126;2023-05-20T02:31:09;12.20;99.90
666;DHT22;315;48.738;9.126;2023-05-20T02:33:34;12.30;99.90
666;DHT22;315;48.738;9.126;2023-05-20T02:36:00;12.20;99.90
666;DHT22;315;48.738;9.126;2023-05-20T02:38:25;12.20;99.90
666;DHT22;315;48.738;9.126;2023-05-20T02:40:51;12.10;99.90
666;DHT22;315;48.738;9.126;2023-05-20T02:43:16;12.10;99.90
666;DHT22;315;48.738;9.126;2023-05-20T02:45:42;12.10;99.90
666;DHT22;315;48.738;9.126;2023-05-20T02:48:07;12.10;99.90
666;DHT22;315;48.738;9.126;2023-05-20T02:50:33;12.00;99.90
666;DHT22;315;48.738;9.126;2023-05-20T02:52:58;12.00;99.90
666;DHT22;315;48.738;9.126;2023-05-20T02:55:24;12.00;99.90
666;DHT22;315;48.738;9.126;2023-05-20T02:57:49;11.90;99.90
666;DHT22;315;48.738;9.126;2023-05-20T03:00:15;11.90;99.90
666;DHT22;315;48.738;9.126;2023-05-20T03:02:41;11.80;99.90
666;DHT22;315;48.738;9.126;2023-05-20T03:05:06;11.80;99.90
666;DHT22;315;48.738;9.126;2023-05-20T03:07:33;11.80;99.90
666;DHT22;315;48.738;9.126;2023-05-20T03:10:00;11.80;99.90
666;DHT22;315;48.738;9.126;2023-05-20T03:12:27;11.90;99.90
666;DHT22;315;48.738;9.126;2023-05-20T03:14:53;11.90;99.90
666;DHT22;315;48.738;9.126;2023-05-20T03:17:20;11.90;99.90
666;DHT22;315;48.738;9.126;2023-05-20T03:19:46;11.90;99.90
666;DHT22;315;48.738;9.126;2023-05-20T03:22:11;12.00;99.90
666;DHT22;315;48.738;9.126;2023-05-20T03:24:37;12.00;99.90
666;DHT22;315;48.738;9.126;2023-05-20T03:27:03;11.90;99.90
666;DHT22;315;48.738;9.126;2023-05-20T03:29:29;11.90;99.90
666;DHT22;315;48.738;9.126;2023-05-20T03:31:55;11.80;99.90
666;DHT22;315;48.738;9.126;2023-05-20T03:34:21;11.80;99.90
666;DHT22;315;48.738;9.126;2023-05-20T03:36:46;11.80;99.90
666;DHT22;315;48.738;9.126;2023-05-20T03:39:12;11.70;99.90
666;DHT22;315;48.738;9.126;2023-05-20T03:41:37;11.60;99.90
666;DHT22;315;48.738;9.126;2023-05-20T03:44:03;11.50;99.90
666;DHT22;315;48.738;9.126;2023-05-20T03:46:29;11.50;99.90
666;DHT22;315;48.738;9.126;2023-05-20T03:48:56;11.50;99.90
666;DHT22;315;48.738;9.126;2023-05-20T03:51:22;11.50;99.90
666;DHT22;315;48.738;9.126;2023-05-20T03:53:47;11.60;99.90
666;DHT22;315;48.738;9.126;2023-05-20T03:56:13;11.60;99.90
666;DHT22;315;48.738;9.126;2023-05-20T03:58:38;11.70;99.90
666;DHT22;315;48.738;9.126;2023-05-20T04:01:04;11.80;99.90
666;DHT22;315;48.738;9.126;2023-05-20T04:03:29;11.80;99.90
666;DHT22;315;48.738;9.126;2023-05-20T04:05:55;11.90;99.90
666;DHT22;315;48.738;9.126;2023-05-20T04:08:21;11.90;99.90
666;DHT22;315;48.738;9.126;2023-05-20T04:10:50;11.90;99.90
666;DHT22;315;48.738;9.126;2023-05-20T04:13:15;11.90;99.90
666;DHT22;315;48.738;9.126;2023-05-20T04:15:41;11.90;99.90
666;DHT22;315;48.738;9.126;2023-05-20T04:18:07;11.90;99.90
666;DHT22;315;48.738;9.126;2023-05-20T04:20:32;12.00;99.90
666;DHT22;315;48.738;9.126;2023-05-20T04:22:58;12.00;99.90
666;DHT22;315;48.738;9.126;2023-05-20T04:25:24;12.00;99.90
666;DHT22;315;48.738;9.126;2023-05-20T04:27:50;12.10;99.90
666;DHT22;315;48.738;9.126;2023-05-20T04:30:18;12.10;99.90
666;DHT22;315;48.738;9.126;2023-05-20T04:32:44;12.20;99.90
666;DHT22;315;48.738;9.126;2023-05-20T04:35:09;12.20;99.90
666;DHT22;315;48.738;9.126;2023-05-20T04:37:38;12.40;99.90
666;DHT22;315;48.738;9.126;2023-05-20T04:40:04;12.40;99.90
666;DHT22;315;48.738;9.126;2023-05-20T04:42:33;12.50;99.90
666;DHT22;315;48.738;9.126;2023-05-20T04:44:59;12.60;99.90
666;DHT22;315;48.738;9.126;2023-05-20T04:47:27;12.70;99.90
666;DHT22;315;48.738;9.126;2023-05-20T04:49:53;12.70;99.90
666;DHT22;315;48.738;9.126;2023-05-20T04:52:22;12.70;99.90
666;DHT22;315;48.738;9.126;2023-05-20T04:54:48;12.60;99.90
666;DHT22;315;48.738;9.126;2023-05-20T04:57:15;12.70;99.90
666;DHT22;315;48.738;9.126;2023-05-20T04:59:41;12.70;99.90
666;DHT22;315;48.738;9.126;2023-05-20T05:02:07;12.70;99.90
666;DHT22;315;48.738;9.126;2023-05-20T05:04:32;12.80;99.90
666;DHT22;315;48.738;9.126;2023-05-20T05:06:58;13.00;99.90
666;DHT22;315;48.738;9.126;2023-05-20T05:09:23;13.10;99.90
666;DHT22;315;48.738;9.126;2023-05-20T05:11:49;13.30;99.90
666;DHT22;315;48.738;9.126;2023-05-20T05:14:14;13.50;99.90
666;DHT22;315;48.738;9.126;2023-05-20T05:16:40;13.60;99.90
666;DHT22;315;48.738;9.126;2023-05-20T05:19:06;13.70;99.90
666;DHT22;315;48.738;9.126;2023-05-20T05:21:32;13.80;99.90
666;DHT22;315;48.738;9.126;2023-05-20T05:23:58;13.80;99.90
666;DHT22;315;48.738;9.126;2023-05-20T05:26:24;13.80;99.90
666;DHT22;315;48.738;9.126;2023-05-20T05:28:51;13.90;99.90
666;DHT22;315;48.738;9.126;2023-05-20T05:31:16;14.00;99.90
666;DHT22;315;48.738;9.126;2023-05-20T05:33:42;14.10;99.90
666;DHT22;315;48.738;9.126;2023-05-20T05:36:07;14.20;99.90
666;DHT22;315;48.738;9.126;2023-05-20T05:38:33;14.40;99.90
666;DHT22;315;48.738;9.126;2023-05-20T05:40:58;14.40;99.90
666;DHT22;315;48.738;9.126;2023-05-20T05:43:24;14.50;99.90
666;DHT22;315;48.738;9.126;2023-05-20T05:45:50;14.70;99.90
666;DHT22;315;48.738;9.126;2023-05-20T05:48:15;14.80;99.90
666;DHT22;315;48.738;9.126;2023-05-20T05:50:45;14.90;99.90
666;DHT22;315;48.738;9.126;2023-05-20T05:53:10;15.00;99.90
666;DHT22;315;48.738;9.126;2023-05-20T05:55:36;15.10;99.90
666;DHT22;315;48.738;9.126;2023-05-20T05:58:03;15.10;99.90
666;DHT22;315;48.738;9.126;2023-05-20T06:00:31;15.20;99.90
666;DHT22;315;48.738;9.126;2023-05-20T06:02:57;15.10;99.90
666;DHT22;315;48.738;9.126;2023-05-20T06:05:22;15.20;99.90
666;DHT22;315;48.738;9.126;2023-05-20T06:07:48;15.30;99.90
666;DHT22;315;48.738;9.126;2023-05-20T06:10:13;15.40;99.90
666;DHT22;315;48.738;9.126;2023-05-20T06:12:39;15.50;99.90
666;DHT22;315;48.738;9.126;2023-05-20T06:15:05;15.70;99.90
666;DHT22;315;48.738;9.126;2023-05-20T06:17:31;15.70;99.90
666;DHT22;315;48.738;9.126;2023-05-20T06:19:57;15.90;99.90
666;DHT22;315;48.738;9.126;2023-05-20T06:22:22;15.90;99.90
666;DHT22;315;48.738;9.126;2023-05-20T06:24:48;16.10;99.90
666;DHT22;315;48.738;9.126;2023-05-20T06:27:14;16.20;99.90
666;DHT22;315;48.738;9.126;2023-05-20T06:29:39;16.30;99.90
666;DHT22;315;48.738;9.126;2023-05-20T06:32:05;16.30;99.90
666;DHT22;315;48.738;9.126;2023-05-20T06:34:31;16.40;99.90
666;DHT22;315;48.738;9.126;2023-05-20T06:36:57;16.50;99.90
666;DHT22;315;48.738;9.126;2023-05-20T06:39:23;16.60;99.90
666;DHT22;315;48.738;9.126;2023-05-20T06:41:49;16.70;99.90
666;DHT22;315;48.738;9.126;2023-05-20T06:44:16;16.70;99.90
666;DHT22;315;48.738;9.126;2023-05-20T06:46:41;16.70;99.90
666;DHT22;315;48.738;9.126;2023-05-20T06:49:07;16.80;99.90
666;DHT22;315;48.738;9.126;2023-05-20T06:51:32;16.90;99.90
666;DHT22;315;48.738;9.126;2023-05-20T06:53:58;16.90;99.90
666;DHT22;315;48.738;9.126;2023-05-20T06:56:23;16.60;99.90
666;DHT22;315;48.738;9.126;2023-05-20T06:58:49;16.90;99.90
666;DHT22;315;48.738;9.126;2023-05-20T07:01:14;17.00;99.90
666;DHT22;315;48.738;9.126;2023-05-20T07:03:40;17.00;99.90
666;DHT22;315;48.738;9.126;2023-05-20T07:06:06;17.00;99.90
666;DHT22;315;48.738;9.126;2023-05-20T07:08:32;17.20;99.90
666;DHT22;315;48.738;9.126;2023-05-20T07:10:57;17.40;99.90
666;DHT22;315;48.738;9.126;2023-05-20T07:13:23;17.60;99.90
666;DHT22;315;48.738;9.126;2023-05-20T07:15:50;17.70;99.90
666;DHT22;315;48.738;9.126;2023-05-20T07:18:15;17.60;99.90
666;DHT22;315;48.738;9.126;2023-05-20T07:20:41;17.80;99.90
666;DHT22;315;48.738;9.126;2023-05-20T07:23:07;17.90;99.90
666;DHT22;315;48.738;9.126;2023-05-20T07:25:32;18.20;99.90
666;DHT22;315;48.738;9.126;2023-05-20T07:27:58;18.40;99.90
666;DHT22;315;48.738;9.126;2023-05-20T07:30:25;18.50;99.90
666;DHT22;315;48.738;9.126;2023-05-20T07:32:50;18.40;99.90
666;DHT22;315;48.738;9.126;2023-05-20T07:35:16;18.30;99.90
666;DHT22;315;48.738;9.126;2023-05-20T07:37:42;18.30;99.90
666;DHT22;315;48.738;9.126;2023-05-20T07:40:08;18.40;99.90
666;DHT22;315;48.738;9.126;2023-05-20T07:42:33;18.60;99.90
666;DHT22;315;48.738;9.126;2023-05-20T07:44:59;18.80;99.90
666;DHT22;315;48.738;9.126;2023-05-20T07:47:25;18.80;99.90
666;DHT22;315;48.738;9.126;2023-05-20T07:49:50;18.80;99.90
666;DHT22;315;48.738;9.126;2023-05-20T07:52:16;19.00;99.90
666;DHT22;315;48.738;9.126;2023-05-20T07:54:41;19.20;99.90
666;DHT22;315;48.738;9.126;2023-05-20T07:57:07;19.40;99.90
666;DHT22;315;48.738;9.126;2023-05-20T07:59:32;19.60;99.90
666;DHT22;315;48.738;9.126;2023-05-20T08:01:58;19.70;99.90
666;DHT22;315;48.738;9.126;2023-05-20T08:04:24;19.70;99.90
666;DHT22;315;48.738;9.126;2023-05-20T08:06:51;19.60;99.90
666;DHT22;315;48.738;9.126;2023-05-20T08:09:17;19.50;99.90
666;DHT22;315;48.738;9.126;2023-05-20T08:11:43;19.30;99.90
666;DHT22;315;48.738;9.126;2023-05-20T08:14:08;19.20;99.90
666;DHT22;315;48.738;9.126;2023-05-20T08:16:35;19.10;99.90
666;DHT22;315;48.738;9.126;2023-05-20T08:19:00;19.10;99.90
666;DHT22;315;48.738;9.126;2023-05-20T08:21:26;19.00;99.90
666;DHT22;315;48.738;9.126;2023-05-20T08:23:51;19.00;99.90
666;DHT22;315;48.738;9.126;2023-05-20T08:26:17;18.90;99.90
666;DHT22;315;48.738;9.126;2023-05-20T08:28:42;18.90;99.90
666;DHT22;315;48.738;9.126;2023-05-20T08:31:08;18.80;99.90
666;DHT22;315;48.738;9.126;2023-05-20T08:33:35;18.70;99.90
666;DHT22;315;48.738;9.126;2023-05-20T08:36:00;18.60;99.90
666;DHT22;315;48.738;9.126;2023-05-20T08:38:26;18.70;99.90
666;DHT22;315;48.738;9.126;2023-05-20T08:40:55;19.00;99.90
666;DHT22;315;48.738;9.126;2023-05-20T08:43:22;19.40;99.90
666;DHT22;315;48.738;9.126;2023-05-20T08:45:48;19.70;99.90
666;DHT22;315;48.738;9.126;2023-05-20T08:48:15;20.00;99.90
666;DHT22;315;48.738;9.126;2023-05-20T08:50:42;20.00;99.90
666;DHT22;315;48.738;9.126;2023-05-20T08:53:08;20.30;99.90
666;DHT22;315;48.738;9.126;2023-05-20T08:55:41;20.70;99.90
666;DHT22;315;48.738;9.126;2023-05-20T08:58:08;21.00;99.90
666;DHT22;315;48.738;9.126;2023-05-20T09:00:34;21.10;99.90
666;DHT22;315;48.738;9.126;2023-05-20T09:03:00;21.20;99.90
666;DHT22;315;48.738;9.126;2023-05-20T09:05:26;21.50;99.90
666;DHT22;315;48.738;9.126;2023-05-20T09:07:52;21.80;99.90
666;DHT22;315;48.738;9.126;2023-05-20T09:10:19;21.80;99.90
666;DHT22;315;48.738;9.126;2023-05-20T09:12:44;21.90;99.90
666;DHT22;315;48.738;9.126;2023-05-20T09:15:10;22.10;99.90
666;DHT22;315;48.738;9.126;2023-05-20T09:17:36;22.10;99.90
666;DHT22;315;48.738;9.126;2023-05-20T09:20:09;22.30;99.90
666;DHT22;315;48.738;9.126;2023-05-20T09:22:37;22.50;99.90
666;DHT22;315;48.738;9.126;2023-05-20T09:25:03;22.70;99.90
666;DHT22;315;48.738;9.126;2023-05-20T09:27:28;22.70;99.90
666;DHT22;315;48.738;9.126;2023-05-20T09:29:54;22.90;99.90
666;DHT22;315;48.738;9.126;2023-05-20T09:32:20;23.30;99.90
666;DHT22;315;48.738;9.126;2023-05-20T09:34:48;23.40;99.90
666;DHT22;315;48.738;9.126;2023-05-20T09:37:16;23.40;99.90
666;DHT22;315;48.738;9.126;2023-05-20T09:40:02;23.40;99.90
666;DHT22;315;48.738;9.126;2023-05-20T09:42:39;23.30;99.90
666;DHT22;315;48.738;9.126;2023-05-20T09:45:06;22.90;99.90
666;DHT22;315;48.738;9.126;2023-05-20T09:47:38;22.90;99.90
666;DHT22;315;48.738;9.126;2023-05-20T09:50:06;22.70;99.90
666;DHT22;315;48.738;9.126;2023-05-20T09:52:34;22.80;99.90
666;DHT22;315;48.738;9.126;2023-05-20T09:55:02;22.80;99.90
666;DHT22;315;48.738;9.126;2023-05-20T09:57:32;23.10;99.90
666;DHT22;315;48.738;9.126;2023-05-20T09:59:58;24.00;99.90
666;DHT22;315;48.738;9.126;2023-05-20T10:02:24;24.50;98.90
666;DHT22;315;48.738;9.126;2023-05-20T10:04:50;24.40;97.80
666;DHT22;315;48.738;9.126;2023-05-20T10:07:26;24.60;97.20
666;DHT22;315;48.738;9.126;2023-05-20T10:10:21;24.60;96.30
666;DHT22;315;48.738;9.126;2023-05-20T10:12:59;25.90;94.20
666;DHT22;315;48.738;9.126;2023-05-20T10:16:08;27.20;91.20
666;DHT22;315;48.738;9.126;2023-05-20T10:21:02;28.70;81.40
666;DHT22;315;48.738;9.126;2023-05-20T10:23:29;28.60;78.80
666;DHT22;315;48.738;9.126;2023-05-20T10:25:56;29.00;76.60
666;DHT22;315;48.738;9.126;2023-05-20T10:28:33;29.50;74.10
666;DHT22;315;48.738;9.126;2023-05-20T10:31:00;30.10;70.20
666;DHT22;315;48.738;9.126;2023-05-20T10:33:26;30.30;68.80
666;DHT22;315;48.738;9.126;2023-05-20T10:35:53;30.10;67.30
666;DHT22;315;48.738;9.126;2023-05-20T10:38:19;29.70;66.80
666;DHT22;315;48.738;9.126;2023-05-20T10:40:45;29.20;66.90
666;DHT22;315;48.738;9.126;2023-05-20T10:43:13;28.90;67.10
666;DHT22;315;48.738;9.126;2023-05-20T10:45:48;28.50;67.20
666;DHT22;315;48.738;9.126;2023-05-20T10:48:25;27.90;68.90
666;DHT22;315;48.738;9.126;2023-05-20T10:50:56;27.30;70.50
666;DHT22;315;48.738;9.126;2023-05-20T10:53:23;26.70;72.10
666;DHT22;315;48.738;9.126;2023-05-20T10:55:50;26.80;73.20
666;DHT22;315;48.738;9.126;2023-05-20T10:58:17;27.00;73.70
666;DHT22;315;48.738;9.126;2023-05-20T11:00:44;28.30;70.40
666;DHT22;315;48.738;9.126;2023-05-20T11:03:10;30.00;67.30
666;DHT22;315;48.738;9.126;2023-05-20T11:05:38;31.40;63.20
666;DHT22;315;48.738;9.126;2023-05-20T11:08:06;32.20;80.20
666;DHT22;315;48.738;9.126;2023-05-20T11:10:33;32.20;77.30
666;DHT22;315;48.738;9.126;2023-05-20T11:13:00;31.00;77.20
666;DHT22;315;48.738;9.126;2023-05-20T11:15:26;29.80;78.60
666;DHT22;315;48.738;9.126;2023-05-20T11:17:57;28.90;80.60
666;DHT22;315;48.738;9.126;2023-05-20T11:20:24;28.60;81.50
666;DHT22;315;48.738;9.126;2023-05-20T11:22:51;27.70;83.30
666;DHT22;315;48.738;9.126;2023-05-20T11:25:17;27.80;84.30
666;DHT22;315;48.738;9.126;2023-05-20T11:27:43;29.20;83.40
666;DHT22;315;48.738;9.126;2023-05-20T11:30:11;30.20;79.30
666;DHT22;315;48.738;9.126;2023-05-20T11:32:40;31.10;76.80
666;DHT22;315;48.738;9.126;2023-05-20T11:35:06;30.70;75.40
666;DHT22;315;48.738;9.126;2023-05-20T11:37:32;30.20;77.10
666;DHT22;315;48.738;9.126;2023-05-20T11:40:04;30.50;76.20
666;DHT22;315;48.738;9.126;2023-05-20T11:42:34;30.90;76.80
666;DHT22;315;48.738;9.126;2023-05-20T11:45:00;30.90;75.90
666;DHT22;315;48.738;9.126;2023-05-20T11:47:25;31.00;74.60
666;DHT22;315;48.738;9.126;2023-05-20T11:49:55;30.80;74.10
666;DHT22;315;48.738;9.126;2023-05-20T11:52:20;30.20;74.60
666;DHT22;315;48.738;9.126;2023-05-20T11:54:52;29.30;73.90
666;DHT22;315;48.738;9.126;2023-05-20T11:57:18;28.40;76.20
666;DHT22;315;48.738;9.126;2023-05-20T11:59:44;27.90;77.70
666;DHT22;315;48.738;9.126;2023-05-20T12:02:09;27.50;77.10
666;DHT22;315;48.738;9.126;2023-05-20T12:04:35;27.20;77.70
666;DHT22;315;48.738;9.126;2023-05-20T12:07:01;27.30;77.20
666;DHT22;315;48.738;9.126;2023-05-20T12:09:28;28.10;77.60
666;DHT22;315;48.738;9.126;2023-05-20T12:11:53;29.50;77.10
666;DHT22;315;48.738;9.126;2023-05-20T12:14:20;31.20;74.80
666;DHT22;315;48.738;9.126;2023-05-20T12:16:46;32.80;69.60
666;DHT22;315;48.738;9.126;2023-05-20T12:19:12;32.90;67.30
666;DHT22;315;48.738;9.126;2023-05-20T12:21:37;33.60;66.20
666;DHT22;315;48.738;9.126;2023-05-20T12:24:03;34.70;64.40
666;DHT22;315;48.738;9.126;2023-05-20T12:26:31;35.70;61.30
666;DHT22;315;48.738;9.126;2023-05-20T12:28:57;36.50;58.60
666;DHT22;315;48.738;9.126;2023-05-20T12:31:23;37.20;57.80
666;DHT22;315;48.738;9.126;2023-05-20T12:33:49;37.20;56.20
666;DHT22;315;48.738;9.126;2023-05-20T12:36:15;36.50;55.70
666;DHT22;315;48.738;9.126;2023-05-20T12:38:40;35.00;56.50
666;DHT22;315;48.738;9.126;2023-05-20T12:41:06;33.20;58.20
666;DHT22;315;48.738;9.126;2023-05-20T12:43:32;32.00;59.20
666;DHT22;315;48.738;9.126;2023-05-20T12:45:57;32.90;59.50
666;DHT22;315;48.738;9.126;2023-05-20T12:48:23;34.20;57.60
666;DHT22;315;48.738;9.126;2023-05-20T12:50:48;34.40;57.00
666;DHT22;315;48.738;9.126;2023-05-20T12:53:14;33.00;58.10
666;DHT22;315;48.738;9.126;2023-05-20T12:55:39;32.00;58.80
666;DHT22;315;48.738;9.126;2023-05-20T12:58:05;31.60;60.10
666;DHT22;315;48.738;9.126;2023-05-20T13:00:33;31.70;59.60
666;DHT22;315;48.738;9.126;2023-05-20T13:02:58;30.90;60.00
666;DHT22;315;48.738;9.126;2023-05-20T13:05:24;30.40;60.50
666;DHT22;315;48.738;9.126;2023-05-20T13:07:50;30.50;61.30
666;DHT22;315;48.738;9.126;2023-05-20T13:10:15;30.60;61.50
666;DHT22;315;48.738;9.126;2023-05-20T13:12:42;31.10;61.20
666;DHT22;315;48.738;9.126;2023-05-20T13:15:11;32.20;59.70
666;DHT22;315;48.738;9.126;2023-05-20T13:17:38;32.10;58.90
666;DHT22;315;48.738;9.126;2023-05-20T13:20:04;31.20;59.10
666;DHT22;315;48.738;9.126;2023-05-20T13:22:29;30.40;60.90
666;DHT22;315;48.738;9.126;2023-05-20T13:24:55;30.00;61.40
666;DHT22;315;48.738;9.126;2023-05-20T13:27:21;29.90;60.90
666;DHT22;315;48.738;9.126;2023-05-20T13:29:47;29.80;59.70
666;DHT22;315;48.738;9.126;2023-05-20T13:32:12;29.00;61.00
666;DHT22;315;48.738;9.126;2023-05-20T13:34:38;29.30;61.30
666;DHT22;315;48.738;9.126;2023-05-20T13:37:04;29.70;61.20
666;DHT22;315;48.738;9.126;2023-05-20T13:39:30;30.10;60.00
666;DHT22;315;48.738;9.126;2023-05-20T13:41:55;30.10;60.30
666;DHT22;315;48.738;9.126;2023-05-20T13:44:21;30.10;60.30
666;DHT22;315;48.738;9.126;2023-05-20T13:46:46;30.00;61.30
666;DHT22;315;48.738;9.126;2023-05-20T13:49:12;29.80;60.50
666;DHT22;315;48.738;9.126;2023-05-20T13:51:37;29.10;61.90
666;DHT22;315;48.738;9.126;2023-05-20T13:54:03;28.50;63.70
666;DHT22;315;48.738;9.126;2023-05-20T13:56:28;27.90;64.00
666;DHT22;315;48.738;9.126;2023-05-20T13:58:54;27.20;64.30
666;DHT22;315;48.738;9.126;2023-05-20T14:01:19;26.90;65.10
666;DHT22;315;48.738;9.126;2023-05-20T14:03:45;26.50;65.90
666;DHT22;315;48.738;9.126;2023-05-20T14:06:10;26.20;67.20
666;DHT22;315;48.738;9.126;2023-05-20T14:08:36;26.20;67.90
666;DHT22;315;48.738;9.126;2023-05-20T14:11:02;26.10;68.10
666;DHT22;315;48.738;9.126;2023-05-20T14:13:28;26.00;68.70
666;DHT22;315;48.738;9.126;2023-05-20T14:15:53;25.90;68.70
666;DHT22;315;48.738;9.126;2023-05-20T14:18:19;26.00;69.10
666;DHT22;315;48.738;9.126;2023-05-20T14:20:45;26.10;68.90
666;DHT22;315;48.738;9.126;2023-05-20T14:23:12;26.10;70.00
666;DHT22;315;48.738;9.126;2023-05-20T14:25:38;26.20;68.90
666;DHT22;315;48.738;9.126;2023-05-20T14:28:03;26.10;68.70
666;DHT22;315;48.738;9.126;2023-05-20T14:30:30;26.10;69.10
666;DHT22;315;48.738;9.126;2023-05-20T14:32:56;25.90;70.00
666;DHT22;315;48.738;9.126;2023-05-20T14:35:21;26.00;70.60
666;DHT22;315;48.738;9.126;2023-05-20T14:37:47;26.20;70.90
666;DHT22;315;48.738;9.126;2023-05-20T14:40:13;26.20;70.00
666;DHT22;315;48.738;9.126;2023-05-20T14:42:38;26.30;70.70
666;DHT22;315;48.738;9.126;2023-05-20T14:45:04;26.30;70.30
666;DHT22;315;48.738;9.126;2023-05-20T14:47:30;26.40;70.50
666;DHT22;315;48.738;9.126;2023-05-20T14:49:56;26.50;69.70
666;DHT22;315;48.738;9.126;2023-05-20T14:52:21;26.40;67.00
666;DHT22;315;48.738;9.126;2023-05-20T14:54:47;26.10;67.90
666;DHT22;315;48.738;9.126;2023-05-20T14:57:12;26.00;68.60
666;DHT22;315;48.738;9.126;2023-05-20T14:59:40;25.80;68.90
666;DHT22;315;48.738;9.126;2023-05-20T15:02:05;25.50;69.60
666;DHT22;315;48.738;9.126;2023-05-20T15:04:31;25.50;70.00
666;DHT22;315;48.738;9.126;2023-05-20T15:06:57;25.30;71.20
666;DHT22;315;48.738;9.126;2023-05-20T15:09:22;25.30;71.50
666;DHT22;315;48.738;9.126;2023-05-20T15:11:48;25.30;72.20
666;DHT22;315;48.738;9.126;2023-05-20T15:14:13;25.30;71.60
666;DHT22;315;48.738;9.126;2023-05-20T15:16:39;25.10;73.50
666;DHT22;315;48.738;9.126;2023-05-20T15:19:04;25.10;72.60
666;DHT22;315;48.738;9.126;2023-05-20T15:21:30;25.00;73.30
666;DHT22;315;48.738;9.126;2023-05-20T15:23:56;25.00;73.80
666;DHT22;315;48.738;9.126;2023-05-20T15:26:22;24.90;73.80
666;DHT22;315;48.738;9.126;2023-05-20T15:28:48;24.80;73.20
666;DHT22;315;48.738;9.126;2023-05-20T15:31:13;24.70;73.40
666;DHT22;315;48.738;9.126;2023-05-20T15:33:39;24.70;73.60
666;DHT22;315;48.738;9.126;2023-05-20T15:36:04;24.80;73.90
666;DHT22;315;48.738;9.126;2023-05-20T15:38:30;24.90;73.50
666;DHT22;315;48.738;9.126;2023-05-20T15:40:56;24.90;73.80
666;DHT22;315;48.738;9.126;2023-05-20T15:43:21;24.80;74.10
666;DHT22;315;48.738;9.126;2023-05-20T15:45:47;24.70;74.80
666;DHT22;315;48.738;9.126;2023-05-20T15:48:13;24.70;74.00
666;DHT22;315;48.738;9.126;2023-05-20T15:50:39;24.70;74.50
666;DHT22;315;48.738;9.126;2023-05-20T15:53:05;24.70;74.50
666;DHT22;315;48.738;9.126;2023-05-20T15:55:31;24.70;74.50
666;DHT22;315;48.738;9.126;2023-05-20T15:57:56;24.70;75.20
666;DHT22;315;48.738;9.126;2023-05-20T16:00:22;24.70;75.30
666;DHT22;315;48.738;9.126;2023-05-20T16:02:47;24.70;75.50
666;DHT22;315;48.738;9.126;2023-05-20T16:05:13;24.70;75.60
666;DHT22;315;48.738;9.126;2023-05-20T16:07:40;24.50;75.80
666;DHT22;315;48.738;9.126;2023-05-20T16:10:07;24.50;75.60
666;DHT22;315;48.738;9.126;2023-05-20T16:12:33;24.40;75.30
666;DHT22;315;48.738;9.126;2023-05-20T16:14:58;24.20;76.80
666;DHT22;315;48.738;9.126;2023-05-20T16:17:24;24.20;76.80
666;DHT22;315;48.738;9.126;2023-05-20T16:19:49;24.10;77.40
666;DHT22;315;48.738;9.126;2023-05-20T16:22:16;24.20;78.00
666;DHT22;315;48.738;9.126;2023-05-20T16:24:42;24.20;78.50
666;DHT22;315;48.738;9.126;2023-05-20T16:27:08;24.20;78.50
666;DHT22;315;48.738;9.126;2023-05-20T16:29:33;24.10;78.80
666;DHT22;315;48.738;9.126;2023-05-20T16:31:59;24.10;79.20